sensor_id;sensor_type;location;lat;lon;timestamp;pressure;altitude;pressure_sealevel;temperature;humidity
69848;BME280;57143;55.940;37.496;2023-01-27T00:01:07;98233.38;;;-1.77;100.00
69848;BME280;57143;55.940;37.496;2023-01-27T00:03:36;98217.03;;;-1.89;100.00
69848;BME280;57143;55.940;37.496;2023-01-27T00:06:03;98235.91;;;-1.84;100.00
69848;BME280;57143;55.940;37.496;2023-01-27T00:08:31;98236.34;;;-2.03;100.00
69848;BME280;57143;55.940;37.496;2023-01-27T00:10:58;98254.72;;;-1.93;100.00
69848;BME280;57143;55.940;37.496;2023-01-27T00:13:41;98240.81;;;-1.95;100.00
69848;BME280;57143;55.940;37.496;2023-01-27T00:16:11;98248.41;;;-1.92;100.00
69848;BME280;57143;55.940;37.496;2023-01-27T00:18:40;98253.19;;;-1.88;100.00
69848;BME280;57143;55.940;37.496;2023-01-27T00:21:07;98231.88;;;-2.02;100.00
69848;BME280;57143;55.940;37.496;2023-01-27T00:23:51;98241.47;;;-1.93;100.00
69848;BME280;57143;55.940;37.496;2023-01-27T00:26:36;98257.22;;;-1.92;100.00
69848;BME280;57143;55.940;37.496;2023-01-27T00:29:03;98264.09;;;-1.83;100.00
69848;BME280;57143;55.940;37.496;2023-01-27T00:31:33;98265.84;;;-1.90;100.00
69848;BME280;57143;55.940;37.496;2023-01-27T00:34:19;98236.88;;;-2.07;100.00
69848;BME280;57143;55.940;37.496;2023-01-27T00:36:46;98261.44;;;-2.13;100.00
69848;BME280;57143;55.940;37.496;2023-01-27T00:39:13;98246.84;;;-2.09;100.00
69848;BME280;57143;55.940;37.496;2023-01-27T00:41:42;98268.81;;;-1.93;100.00
69848;BME280;57143;55.940;37.496;2023-01-27T00:44:09;98225.69;;;-2.25;100.00
69848;BME280;57143;55.940;37.496;2023-01-27T00:46:37;98270.31;;;-1.90;100.00
69848;BME280;57143;55.940;37.496;2023-01-27T00:49:08;98272.13;;;-1.91;100.00
69848;BME280;57143;55.940;37.496;2023-01-27T00:51:37;98276.97;;;-1.94;100.00
69848;BME280;57143;55.940;37.496;2023-01-27T00:54:04;98276.28;;;-1.88;100.00
69848;BME280;57143;55.940;37.496;2023-01-27T00:56:31;98267.16;;;-1.94;100.00
69848;BME280;57143;55.940;37.496;2023-01-27T00:58:58;98257.50;;;-2.17;100.00
69848;BME280;57143;55.940;37.496;2023-01-27T01:01:26;98299.38;;;-1.97;100.00
69848;BME280;57143;55.940;37.496;2023-01-27T01:03:53;98294.56;;;-1.93;100.00
69848;BME280;57143;55.940;37.496;2023-01-27T01:06:20;98292.00;;;-2.17;100.00
69848;BME280;57143;55.940;37.496;2023-01-27T01:08:49;98285.94;;;-2.03;100.00
69848;BME280;57143;55.940;37.496;2023-01-27T01:11:18;98285.31;;;-2.05;100.00
69848;BME280;57143;55.940;37.496;2023-01-27T01:13:47;98294.94;;;-2.04;100.00
69848;BME280;57143;55.940;37.496;2023-01-27T01:16:16;98289.19;;;-2.16;100.00
69848;BME280;57143;55.940;37.496;2023-01-27T01:18:49;98303.91;;;-2.13;100.00
69848;BME280;57143;55.940;37.496;2023-01-27T01:21:17;98308.59;;;-2.23;100.00
69848;BME280;57143;55.940;37.496;2023-01-27T01:23:44;98288.88;;;-2.21;100.00
69848;BME280;57143;55.940;37.496;2023-01-27T01:26:14;98292.69;;;-2.23;100.00
69848;BME280;57143;55.940;37.496;2023-01-27T01:28:43;98280.78;;;-2.36;100.00
69848;BME280;57143;55.940;37.496;2023-01-27T01:31:12;98268.34;;;-2.35;100.00
69848;BME280;57143;55.940;37.496;2023-01-27T01:33:39;98268.63;;;-2.22;100.00
69848;BME280;57143;55.940;37.496;2023-01-27T01:36:09;98258.56;;;-2.35;100.00
69848;BME280;57143;55.940;37.496;2023-01-27T01:38:36;98259.50;;;-2.19;100.00
69848;BME280;57143;55.940;37.496;2023-01-27T01:41:04;98257.41;;;-2.32;100.00
69848;BME280;57143;55.940;37.496;2023-01-27T01:43:34;98246.47;;;-2.37;100.00
69848;BME280;57143;55.940;37.496;2023-01-27T01:46:01;98246.97;;;-2.42;100.00
69848;BME280;57143;55.940;37.496;2023-01-27T01:48:32;98248.44;;;-2.31;100.00
69848;BME280;57143;55.940;37.496;2023-01-27T01:51:04;98242.50;;;-2.33;100.00
69848;BME280;57143;55.940;37.496;2023-01-27T01:53:37;98232.84;;;-2.34;100.00
69848;BME280;57143;55.940;37.496;2023-01-27T01:56:11;98232.19;;;-2.36;100.00
69848;BME280;57143;55.940;37.496;2023-01-27T01:58:41;98227.19;;;-2.31;100.00
69848;BME280;57143;55.940;37.496;2023-01-27T02:01:11;98225.38;;;-2.30;100.00
69848;BME280;57143;55.940;37.496;2023-01-27T02:03:40;98224.59;;;-2.39;100.00
69848;BME280;57143;55.940;37.496;2023-01-27T02:06:09;98233.56;;;-2.40;100.00
69848;BME280;57143;55.940;37.496;2023-01-27T02:08:38;98219.06;;;-2.29;100.00
69848;BME280;57143;55.940;37.496;2023-01-27T02:11:06;98215.97;;;-2.33;100.00
69848;BME280;57143;55.940;37.496;2023-01-27T02:13:34;98213.44;;;-2.35;100.00
69848;BME280;57143;55.940;37.496;2023-01-27T02:16:03;98198.97;;;-2.24;100.00
69848;BME280;57143;55.940;37.496;2023-01-27T02:18:33;98189.56;;;-2.26;100.00
69848;BME280;57143;55.940;37.496;2023-01-27T02:21:00;98198.19;;;-2.24;100.00
69848;BME280;57143;55.940;37.496;2023-01-27T02:23:40;98174.56;;;-2.42;100.00
69848;BME280;57143;55.940;37.496;2023-01-27T02:26:14;98202.34;;;-2.30;100.00
69848;BME280;57143;55.940;37.496;2023-01-27T02:28:43;98200.16;;;-2.26;100.00
69848;BME280;57143;55.940;37.496;2023-01-27T02:31:14;98203.16;;;-2.29;100.00
69848;BME280;57143;55.940;37.496;2023-01-27T02:33:41;98194.88;;;-2.26;100.00
69848;BME280;57143;55.940;37.496;2023-01-27T02:36:12;98179.44;;;-2.31;100.00
69848;BME280;57143;55.940;37.496;2023-01-27T02:38:43;98190.16;;;-2.47;100.00
69848;BME280;57143;55.940;37.496;2023-01-27T02:41:17;98178.53;;;-2.46;100.00
69848;BME280;57143;55.940;37.496;2023-01-27T02:43:47;98202.53;;;-2.31;100.00
69848;BME280;57143;55.940;37.496;2023-01-27T02:46:14;98204.50;;;-2.33;100.00
69848;BME280;57143;55.940;37.496;2023-01-27T02:48:41;98200.06;;;-2.41;100.00
69848;BME280;57143;55.940;37.496;2023-01-27T02:51:10;98203.31;;;-2.31;100.00
69848;BME280;57143;55.940;37.496;2023-01-27T02:53:38;98208.50;;;-2.38;100.00
69848;BME280;57143;55.940;37.496;2023-01-27T02:56:05;98182.56;;;-2.27;100.00
69848;BME280;57143;55.940;37.496;2023-01-27T02:58:34;98180.53;;;-2.48;100.00
69848;BME280;57143;55.940;37.496;2023-01-27T03:01:01;98192.09;;;-2.33;100.00
69848;BME280;57143;55.940;37.496;2023-01-27T03:03:28;98189.97;;;-2.46;100.00
69848;BME280;57143;55.940;37.496;2023-01-27T03:05:57;98200.19;;;-2.35;100.00
69848;BME280;57143;55.940;37.496;2023-01-27T03:08:27;98185.81;;;-2.40;100.00
69848;BME280;57143;55.940;37.496;2023-01-27T03:10:54;98195.06;;;-2.36;100.00
69848;BME280;57143;55.940;37.496;2023-01-27T03:13:22;98179.75;;;-2.57;100.00
69848;BME280;57143;55.940;37.496;2023-01-27T03:15:53;98181.38;;;-2.48;100.00
69848;BME280;57143;55.940;37.496;2023-01-27T03:18:38;98183.66;;;-2.45;100.00
69848;BME280;57143;55.940;37.496;2023-01-27T03:21:06;98190.03;;;-2.62;100.00
69848;BME280;57143;55.940;37.496;2023-01-27T03:23:33;98188.88;;;-2.59;100.00
69848;BME280;57143;55.940;37.496;2023-01-27T03:26:01;98197.28;;;-2.48;100.00
69848;BME280;57143;55.940;37.496;2023-01-27T03:28:28;98180.56;;;-2.56;100.00
69848;BME280;57143;55.940;37.496;2023-01-27T03:31:00;98162.84;;;-2.56;100.00
69848;BME280;57143;55.940;37.496;2023-01-27T03:33:27;98188.53;;;-2.56;100.00
69848;BME280;57143;55.940;37.496;2023-01-27T03:35:55;98183.59;;;-2.59;100.00
69848;BME280;57143;55.940;37.496;2023-01-27T03:38:40;98180.94;;;-2.59;100.00
69848;BME280;57143;55.940;37.496;2023-01-27T03:41:24;98182.19;;;-2.47;100.00
69848;BME280;57143;55.940;37.496;2023-01-27T03:44:09;98164.22;;;-2.68;100.00
69848;BME280;57143;55.940;37.496;2023-01-27T03:46:54;98173.47;;;-2.56;100.00
69848;BME280;57143;55.940;37.496;2023-01-27T03:49:21;98177.56;;;-2.53;100.00
69848;BME280;57143;55.940;37.496;2023-01-27T03:51:49;98183.53;;;-2.51;100.00
69848;BME280;57143;55.940;37.496;2023-01-27T03:54:16;98183.84;;;-2.46;100.00
69848;BME280;57143;55.940;37.496;2023-01-27T03:56:44;98139.19;;;-2.65;100.00
69848;BME280;57143;55.940;37.496;2023-01-27T03:59:12;98165.34;;;-2.62;100.00
69848;BME280;57143;55.940;37.496;2023-01-27T04:01:39;98153.94;;;-2.71;100.00
69848;BME280;57143;55.940;37.496;2023-01-27T04:04:10;98178.88;;;-2.49;100.00
69848;BME280;57143;55.940;37.496;2023-01-27T04:06:54;98173.88;;;-2.44;100.00
69848;BME280;57143;55.940;37.496;2023-01-27T04:09:25;98168.34;;;-2.57;100.00
69848;BME280;57143;55.940;37.496;2023-01-27T04:11:53;98170.28;;;-2.51;100.00
69848;BME280;57143;55.940;37.496;2023-01-27T04:14:20;98166.59;;;-2.42;100.00
69848;BME280;57143;55.940;37.496;2023-01-27T04:16:47;98180.88;;;-2.51;100.00
69848;BME280;57143;55.940;37.496;2023-01-27T04:19:17;98164.63;;;-2.48;100.00
69848;BME280;57143;55.940;37.496;2023-01-27T04:21:45;98172.06;;;-2.44;100.00
69848;BME280;57143;55.940;37.496;2023-01-27T04:24:12;98175.44;;;-2.58;100.00
69848;BME280;57143;55.940;37.496;2023-01-27T04:26:48;98099.16;;;-2.78;100.00
69848;BME280;57143;55.940;37.496;2023-01-27T04:29:16;98164.50;;;-2.55;100.00
69848;BME280;57143;55.940;37.496;2023-01-27T04:31:43;98177.38;;;-2.44;100.00
69848;BME280;57143;55.940;37.496;2023-01-27T04:34:11;98186.44;;;-2.38;100.00
69848;BME280;57143;55.940;37.496;2023-01-27T04:36:40;98150.63;;;-2.65;100.00
69848;BME280;57143;55.940;37.496;2023-01-27T04:39:08;98184.50;;;-2.44;100.00
69848;BME280;57143;55.940;37.496;2023-01-27T04:41:35;98179.91;;;-2.58;100.00
69848;BME280;57143;55.940;37.496;2023-01-27T04:44:03;98128.78;;;-2.75;100.00
69848;BME280;57143;55.940;37.496;2023-01-27T04:46:31;98195.47;;;-2.47;100.00
69848;BME280;57143;55.940;37.496;2023-01-27T04:48:58;98191.34;;;-2.58;100.00
69848;BME280;57143;55.940;37.496;2023-01-27T04:51:25;98192.50;;;-2.52;100.00
69848;BME280;57143;55.940;37.496;2023-01-27T04:53:54;98202.41;;;-2.46;100.00
69848;BME280;57143;55.940;37.496;2023-01-27T04:56:24;98201.25;;;-2.44;100.00
69848;BME280;57143;55.940;37.496;2023-01-27T04:58:51;98205.72;;;-2.44;100.00
69848;BME280;57143;55.940;37.496;2023-01-27T05:01:19;98199.41;;;-2.43;100.00
69848;BME280;57143;55.940;37.496;2023-01-27T05:03:46;98205.50;;;-2.35;100.00
69848;BME280;57143;55.940;37.496;2023-01-27T05:06:13;98207.34;;;-2.43;100.00
69848;BME280;57143;55.940;37.496;2023-01-27T05:08:41;98222.84;;;-2.55;100.00
69848;BME280;57143;55.940;37.496;2023-01-27T05:11:10;98183.88;;;-3.01;100.00
69848;BME280;57143;55.940;37.496;2023-01-27T05:13:37;98227.38;;;-2.71;100.00
69848;BME280;57143;55.940;37.496;2023-01-27T05:16:11;98235.63;;;-2.66;100.00
69848;BME280;57143;55.940;37.496;2023-01-27T05:18:39;98214.59;;;-2.76;100.00
69848;BME280;57143;55.940;37.496;2023-01-27T05:21:07;98225.38;;;-2.77;100.00
69848;BME280;57143;55.940;37.496;2023-01-27T05:23:34;98241.59;;;-2.64;100.00
69848;BME280;57143;55.940;37.496;2023-01-27T05:26:07;98230.00;;;-2.63;100.00
69848;BME280;57143;55.940;37.496;2023-01-27T05:28:38;98231.31;;;-2.59;100.00
69848;BME280;57143;55.940;37.496;2023-01-27T05:31:07;98242.75;;;-2.67;100.00
69848;BME280;57143;55.940;37.496;2023-01-27T05:33:35;98230.78;;;-2.55;100.00
69848;BME280;57143;55.940;37.496;2023-01-27T05:36:04;98240.56;;;-2.47;100.00
69848;BME280;57143;55.940;37.496;2023-01-27T05:38:32;98246.25;;;-2.66;100.00
69848;BME280;57143;55.940;37.496;2023-01-27T05:41:00;98244.44;;;-2.74;100.00
69848;BME280;57143;55.940;37.496;2023-01-27T05:43:29;98240.41;;;-2.62;100.00
69848;BME280;57143;55.940;37.496;2023-01-27T05:46:08;98240.06;;;-2.59;100.00
69848;BME280;57143;55.940;37.496;2023-01-27T05:48:37;98217.25;;;-2.68;100.00
69848;BME280;57143;55.940;37.496;2023-01-27T05:51:05;98199.81;;;-2.62;100.00
69848;BME280;57143;55.940;37.496;2023-01-27T05:53:33;98205.59;;;-2.59;100.00
69848;BME280;57143;55.940;37.496;2023-01-27T05:56:01;98225.69;;;-2.64;100.00
69848;BME280;57143;55.940;37.496;2023-01-27T05:58:28;98240.56;;;-2.55;100.00
69848;BME280;57143;55.940;37.496;2023-01-27T06:00:56;98236.25;;;-2.56;100.00
69848;BME280;57143;55.940;37.496;2023-01-27T06:03:24;98231.22;;;-2.43;100.00
69848;BME280;57143;55.940;37.496;2023-01-27T06:05:53;98223.50;;;-2.53;100.00
69848;BME280;57143;55.940;37.496;2023-01-27T06:08:21;98224.31;;;-2.52;100.00
69848;BME280;57143;55.940;37.496;2023-01-27T06:10:49;98228.97;;;-2.62;100.00
69848;BME280;57143;55.940;37.496;2023-01-27T06:13:16;98231.41;;;-2.45;100.00
69848;BME280;57143;55.940;37.496;2023-01-27T06:15:44;98221.38;;;-2.57;100.00
69848;BME280;57143;55.940;37.496;2023-01-27T06:18:12;98206.41;;;-2.50;100.00
69848;BME280;57143;55.940;37.496;2023-01-27T06:20:41;98209.41;;;-2.53;100.00
69848;BME280;57143;55.940;37.496;2023-01-27T06:23:10;98221.47;;;-2.43;100.00
69848;BME280;57143;55.940;37.496;2023-01-27T06:25:38;98228.09;;;-2.39;100.00
69848;BME280;57143;55.940;37.496;2023-01-27T06:28:06;98235.22;;;-2.39;100.00
69848;BME280;57143;55.940;37.496;2023-01-27T06:30:35;98221.28;;;-2.41;100.00
69848;BME280;57143;55.940;37.496;2023-01-27T06:33:03;98240.38;;;-2.46;100.00
69848;BME280;57143;55.940;37.496;2023-01-27T06:35:32;98234.94;;;-2.60;100.00
69848;BME280;57143;55.940;37.496;2023-01-27T06:38:02;98248.03;;;-2.51;100.00
69848;BME280;57143;55.940;37.496;2023-01-27T06:40:34;98246.81;;;-2.40;100.00
69848;BME280;57143;55.940;37.496;2023-01-27T06:43:01;98254.44;;;-2.37;100.00
69848;BME280;57143;55.940;37.496;2023-01-27T06:45:28;98233.88;;;-2.35;100.00
69848;BME280;57143;55.940;37.496;2023-01-27T06:47:56;98258.31;;;-2.56;100.00
69848;BME280;57143;55.940;37.496;2023-01-27T06:50:25;98160.88;;;-3.08;100.00
69848;BME280;57143;55.940;37.496;2023-01-27T06:52:59;98272.69;;;-2.50;100.00
69848;BME280;57143;55.940;37.496;2023-01-27T06:55:29;98277.34;;;-2.44;100.00
69848;BME280;57143;55.940;37.496;2023-01-27T06:57:56;98286.94;;;-2.43;100.00
69848;BME280;57143;55.940;37.496;2023-01-27T07:00:24;98255.16;;;-2.51;100.00
69848;BME280;57143;55.940;37.496;2023-01-27T07:02:56;98272.69;;;-2.42;100.00
69848;BME280;57143;55.940;37.496;2023-01-27T07:05:23;98274.66;;;-2.36;100.00
69848;BME280;57143;55.940;37.496;2023-01-27T07:07:52;98270.34;;;-2.37;100.00
69848;BME280;57143;55.940;37.496;2023-01-27T07:10:22;98268.69;;;-2.38;100.00
69848;BME280;57143;55.940;37.496;2023-01-27T07:12:51;98289.22;;;-2.32;100.00
69848;BME280;57143;55.940;37.496;2023-01-27T07:15:18;98287.72;;;-2.26;100.00
69848;BME280;57143;55.940;37.496;2023-01-27T07:17:45;98295.56;;;-2.33;100.00
69848;BME280;57143;55.940;37.496;2023-01-27T07:20:13;98286.38;;;-2.22;100.00
69848;BME280;57143;55.940;37.496;2023-01-27T07:22:40;98293.16;;;-2.20;100.00
69848;BME280;57143;55.940;37.496;2023-01-27T07:25:10;98307.81;;;-2.32;100.00
69848;BME280;57143;55.940;37.496;2023-01-27T07:27:39;98310.91;;;-2.12;100.00
69848;BME280;57143;55.940;37.496;2023-01-27T07:30:09;98323.53;;;-2.30;100.00
69848;BME280;57143;55.940;37.496;2023-01-27T07:32:36;98311.56;;;-2.18;100.00
69848;BME280;57143;55.940;37.496;2023-01-27T07:35:04;98320.53;;;-2.19;100.00
69848;BME280;57143;55.940;37.496;2023-01-27T07:37:31;98325.28;;;-1.99;100.00
69848;BME280;57143;55.940;37.496;2023-01-27T07:39:58;98326.06;;;-1.90;100.00
69848;BME280;57143;55.940;37.496;2023-01-27T07:42:25;98327.13;;;-2.07;100.00
69848;BME280;57143;55.940;37.496;2023-01-27T07:44:52;98343.72;;;-2.13;100.00
69848;BME280;57143;55.940;37.496;2023-01-27T07:47:21;98364.59;;;-2.02;100.00
69848;BME280;57143;55.940;37.496;2023-01-27T07:49:54;98365.41;;;-2.02;100.00
69848;BME280;57143;55.940;37.496;2023-01-27T07:52:21;98379.19;;;-2.06;100.00
69848;BME280;57143;55.940;37.496;2023-01-27T07:54:49;98376.69;;;-2.00;100.00
69848;BME280;57143;55.940;37.496;2023-01-27T07:57:16;98373.00;;;-1.91;100.00
69848;BME280;57143;55.940;37.496;2023-01-27T07:59:43;98385.09;;;-1.80;100.00
69848;BME280;57143;55.940;37.496;2023-01-27T08:02:12;98371.69;;;-1.95;100.00
69848;BME280;57143;55.940;37.496;2023-01-27T08:04:41;98403.38;;;-1.85;100.00
69848;BME280;57143;55.940;37.496;2023-01-27T08:07:13;98397.00;;;-1.68;100.00
69848;BME280;57143;55.940;37.496;2023-01-27T08:09:42;98419.72;;;-1.66;100.00
69848;BME280;57143;55.940;37.496;2023-01-27T08:12:09;98432.19;;;-1.66;100.00
69848;BME280;57143;55.940;37.496;2023-01-27T08:14:36;98428.81;;;-1.52;100.00
69848;BME280;57143;55.940;37.496;2023-01-27T08:17:03;98436.97;;;-1.62;100.00
69848;BME280;57143;55.940;37.496;2023-01-27T08:19:31;98464.72;;;-1.64;100.00
69848;BME280;57143;55.940;37.496;2023-01-27T08:22:00;98488.13;;;-1.68;100.00
69848;BME280;57143;55.940;37.496;2023-01-27T08:24:27;98496.56;;;-1.56;100.00
69848;BME280;57143;55.940;37.496;2023-01-27T08:26:56;98488.88;;;-1.51;100.00
69848;BME280;57143;55.940;37.496;2023-01-27T08:29:23;98492.75;;;-1.62;100.00
69848;BME280;57143;55.940;37.496;2023-01-27T08:31:51;98514.13;;;-1.55;100.00
69848;BME280;57143;55.940;37.496;2023-01-27T08:34:20;98536.06;;;-1.53;100.00
69848;BME280;57143;55.940;37.496;2023-01-27T08:36:47;98528.22;;;-1.47;100.00
69848;BME280;57143;55.940;37.496;2023-01-27T08:39:16;98522.78;;;-1.61;100.00
69848;BME280;57143;55.940;37.496;2023-01-27T08:41:43;98547.66;;;-1.38;100.00
69848;BME280;57143;55.940;37.496;2023-01-27T08:44:10;98564.25;;;-1.44;100.00
69848;BME280;57143;55.940;37.496;2023-01-27T08:46:37;98564.78;;;-1.49;100.00
69848;BME280;57143;55.940;37.496;2023-01-27T08:49:04;98592.19;;;-1.56;100.00
69848;BME280;57143;55.940;37.496;2023-01-27T08:51:33;98551.03;;;-1.84;100.00
69848;BME280;57143;55.940;37.496;2023-01-27T08:54:00;98602.47;;;-1.61;100.00
69848;BME280;57143;55.940;37.496;2023-01-27T08:56:29;98597.16;;;-1.61;100.00
69848;BME280;57143;55.940;37.496;2023-01-27T08:58:56;98598.66;;;-1.59;100.00
69848;BME280;57143;55.940;37.496;2023-01-27T09:01:23;98612.09;;;-1.44;100.00
69848;BME280;57143;55.940;37.496;2023-01-27T09:03:50;98607.94;;;-1.39;100.00
69848;BME280;57143;55.940;37.496;2023-01-27T09:06:18;98612.44;;;-1.47;100.00
69848;BME280;57143;55.940;37.496;2023-01-27T09:08:47;98624.72;;;-1.38;100.00
69848;BME280;57143;55.940;37.496;2023-01-27T09:11:35;98637.31;;;-1.48;100.00
69848;BME280;57143;55.940;37.496;2023-01-27T09:14:03;98615.75;;;-1.53;100.00
69848;BME280;57143;55.940;37.496;2023-01-27T09:16:30;98623.50;;;-1.28;100.00
69848;BME280;57143;55.940;37.496;2023-01-27T09:18:57;98625.53;;;-1.30;100.00
69848;BME280;57143;55.940;37.496;2023-01-27T09:21:24;98642.47;;;-1.31;100.00
69848;BME280;57143;55.940;37.496;2023-01-27T09:23:52;98653.59;;;-1.35;100.00
69848;BME280;57143;55.940;37.496;2023-01-27T09:26:19;98655.75;;;-1.39;100.00
69848;BME280;57143;55.940;37.496;2023-01-27T09:28:47;98670.53;;;-1.44;100.00
69848;BME280;57143;55.940;37.496;2023-01-27T09:31:14;98670.69;;;-1.38;100.00
69848;BME280;57143;55.940;37.496;2023-01-27T09:33:42;98660.56;;;-1.18;100.00
69848;BME280;57143;55.940;37.496;2023-01-27T09:36:10;98636.97;;;-1.29;100.00
69848;BME280;57143;55.940;37.496;2023-01-27T09:38:43;98653.56;;;-1.11;100.00
69848;BME280;57143;55.940;37.496;2023-01-27T09:41:28;98663.19;;;-1.02;100.00
69848;BME280;57143;55.940;37.496;2023-01-27T09:44:17;98659.22;;;-1.14;100.00
69848;BME280;57143;55.940;37.496;2023-01-27T09:46:58;98664.34;;;-1.04;100.00
69848;BME280;57143;55.940;37.496;2023-01-27T09:53:02;98672.38;;;-1.37;100.00
69848;BME280;57143;55.940;37.496;2023-01-27T09:55:36;98697.75;;;-1.18;100.00
69848;BME280;57143;55.940;37.496;2023-01-27T09:58:10;98690.94;;;-1.21;100.00
69848;BME280;57143;55.940;37.496;2023-01-27T10:00:48;98695.75;;;-1.24;100.00
69848;BME280;57143;55.940;37.496;2023-01-27T10:03:42;98644.16;;;-1.46;100.00
69848;BME280;57143;55.940;37.496;2023-01-27T10:09:34;98666.88;;;-1.35;100.00
69848;BME280;57143;55.940;37.496;2023-01-27T10:12:13;98680.78;;;-1.01;100.00
69848;BME280;57143;55.940;37.496;2023-01-27T10:14:46;98680.34;;;-1.29;100.00
69848;BME280;57143;55.940;37.496;2023-01-27T10:17:31;98696.94;;;-1.10;100.00
69848;BME280;57143;55.940;37.496;2023-01-27T10:20:20;98671.03;;;-1.25;100.00
69848;BME280;57143;55.940;37.496;2023-01-27T10:22:56;98695.41;;;-0.97;100.00
69848;BME280;57143;55.940;37.496;2023-01-27T10:25:32;98702.88;;;-1.08;100.00
69848;BME280;57143;55.940;37.496;2023-01-27T10:28:10;98703.56;;;-0.98;100.00
69848;BME280;57143;55.940;37.496;2023-01-27T10:30:44;98670.50;;;-1.04;100.00
69848;BME280;57143;55.940;37.496;2023-01-27T10:33:19;98701.16;;;-0.77;100.00
69848;BME280;57143;55.940;37.496;2023-01-27T10:35:50;98704.81;;;-0.70;100.00
69848;BME280;57143;55.940;37.496;2023-01-27T10:38:29;98711.47;;;-0.74;100.00
69848;BME280;57143;55.940;37.496;2023-01-27T10:41:08;98712.78;;;-0.70;100.00
69848;BME280;57143;55.940;37.496;2023-01-27T10:43:42;98721.06;;;-0.65;100.00
69848;BME280;57143;55.940;37.496;2023-01-27T10:46:20;98725.06;;;-0.61;100.00
69848;BME280;57143;55.940;37.496;2023-01-27T10:48:55;98722.75;;;-0.72;100.00
69848;BME280;57143;55.940;37.496;2023-01-27T10:51:29;98675.97;;;-1.05;100.00
69848;BME280;57143;55.940;37.496;2023-01-27T10:54:01;98743.53;;;-0.76;100.00
69848;BME280;57143;55.940;37.496;2023-01-27T10:56:36;98743.16;;;-0.49;100.00
69848;BME280;57143;55.940;37.496;2023-01-27T10:59:10;98721.78;;;-0.71;100.00
69848;BME280;57143;55.940;37.496;2023-01-27T11:01:43;98738.72;;;-0.64;100.00
69848;BME280;57143;55.940;37.496;2023-01-27T11:04:17;98773.44;;;-0.58;100.00
69848;BME280;57143;55.940;37.496;2023-01-27T11:06:47;98779.44;;;-0.64;100.00
69848;BME280;57143;55.940;37.496;2023-01-27T11:09:24;98748.38;;;-0.79;100.00
69848;BME280;57143;55.940;37.496;2023-01-27T11:11:52;98757.50;;;-0.66;100.00
69848;BME280;57143;55.940;37.496;2023-01-27T11:14:28;98767.19;;;-0.89;100.00
69848;BME280;57143;55.940;37.496;2023-01-27T11:17:00;98771.16;;;-0.77;100.00
69848;BME280;57143;55.940;37.496;2023-01-27T11:19:39;98760.06;;;-0.88;100.00
69848;BME280;57143;55.940;37.496;2023-01-27T11:22:21;98765.31;;;-0.64;100.00
69848;BME280;57143;55.940;37.496;2023-01-27T11:24:56;98770.66;;;-0.64;100.00
69848;BME280;57143;55.940;37.496;2023-01-27T11:27:45;98772.09;;;-0.46;100.00
69848;BME280;57143;55.940;37.496;2023-01-27T11:30:24;98764.09;;;-0.46;100.00
69848;BME280;57143;55.940;37.496;2023-01-27T11:32:58;98764.47;;;-0.65;100.00
69848;BME280;57143;55.940;37.496;2023-01-27T11:35:28;98777.75;;;-0.57;100.00
69848;BME280;57143;55.940;37.496;2023-01-27T11:37:55;98795.09;;;-0.61;100.00
69848;BME280;57143;55.940;37.496;2023-01-27T11:40:26;98779.47;;;-0.80;100.00
69848;BME280;57143;55.940;37.496;2023-01-27T11:42:55;98784.47;;;-0.85;100.00
69848;BME280;57143;55.940;37.496;2023-01-27T11:45:24;98746.56;;;-0.79;100.00
69848;BME280;57143;55.940;37.496;2023-01-27T11:47:55;98781.59;;;-0.67;100.00
69848;BME280;57143;55.940;37.496;2023-01-27T11:50:28;98788.78;;;-0.76;100.00
69848;BME280;57143;55.940;37.496;2023-01-27T11:53:02;98796.25;;;-0.79;100.00
69848;BME280;57143;55.940;37.496;2023-01-27T11:55:36;98783.09;;;-0.65;100.00
69848;BME280;57143;55.940;37.496;2023-01-27T11:58:12;98766.13;;;-0.56;100.00
69848;BME280;57143;55.940;37.496;2023-01-27T12:00:44;98768.97;;;-0.57;100.00
69848;BME280;57143;55.940;37.496;2023-01-27T12:03:16;98708.16;;;-0.84;100.00
69848;BME280;57143;55.940;37.496;2023-01-27T12:05:52;98776.47;;;-0.69;100.00
69848;BME280;57143;55.940;37.496;2023-01-27T12:08:38;98780.91;;;-0.45;100.00
69848;BME280;57143;55.940;37.496;2023-01-27T12:11:17;98773.94;;;-0.54;100.00
69848;BME280;57143;55.940;37.496;2023-01-27T12:13:48;98767.59;;;-0.45;100.00
69848;BME280;57143;55.940;37.496;2023-01-27T12:16:16;98780.31;;;-0.71;100.00
69848;BME280;57143;55.940;37.496;2023-01-27T12:18:51;98771.63;;;-0.65;100.00
69848;BME280;57143;55.940;37.496;2023-01-27T12:21:33;98779.47;;;-0.72;100.00
69848;BME280;57143;55.940;37.496;2023-01-27T12:24:01;98780.94;;;-0.61;100.00
69848;BME280;57143;55.940;37.496;2023-01-27T12:26:34;98733.75;;;-0.75;100.00
69848;BME280;57143;55.940;37.496;2023-01-27T12:29:05;98765.09;;;-0.39;100.00
69848;BME280;57143;55.940;37.496;2023-01-27T12:31:43;98782.69;;;-0.30;100.00
69848;BME280;57143;55.940;37.496;2023-01-27T12:34:30;98740.38;;;-0.55;100.00
69848;BME280;57143;55.940;37.496;2023-01-27T12:37:03;98759.13;;;-0.49;100.00
69848;BME280;57143;55.940;37.496;2023-01-27T12:39:39;98750.00;;;-0.54;100.00
69848;BME280;57143;55.940;37.496;2023-01-27T12:42:36;98785.03;;;-0.35;100.00
69848;BME280;57143;55.940;37.496;2023-01-27T12:45:22;98777.91;;;-0.42;100.00
69848;BME280;57143;55.940;37.496;2023-01-27T12:47:58;98795.19;;;-0.46;100.00
69848;BME280;57143;55.940;37.496;2023-01-27T12:50:28;98786.56;;;-0.48;100.00
69848;BME280;57143;55.940;37.496;2023-01-27T12:53:10;98794.41;;;-0.55;100.00
69848;BME280;57143;55.940;37.496;2023-01-27T12:55:40;98795.06;;;-0.53;100.00
69848;BME280;57143;55.940;37.496;2023-01-27T12:58:33;98789.25;;;-0.72;100.00
69848;BME280;57143;55.940;37.496;2023-01-27T13:01:03;98815.34;;;-0.52;100.00
69848;BME280;57143;55.940;37.496;2023-01-27T13:03:32;98814.19;;;-0.49;100.00
69848;BME280;57143;55.940;37.496;2023-01-27T13:06:04;98797.41;;;-0.74;100.00